Terminal Aerodrome Forecast
Issued by NWS

Home | Current Version | Previous Version | Text Only | Print | Product List | Glossary On
Versions: 1 2 3 4 5 6 7 8 9 10 11 12 13 14 15 16 17 18 19 20 21
150
FTUS43 KDLH 241355 AAB
TAFHYR
TAF AMD
KHYR 241355Z 2414/2512 VRB03KT 1SM RA BR VCTS OVC035CB
      TEMPO 2414/2415 4SM -RA OVC050
     FM241500 17004KT P6SM VCSH SCT045 BKN100
     FM241800 19011KT P6SM SCT250
     FM250300 19006KT 6SM -SHRA VCTS BKN090CB
     FM250900 19006KT P6SM BKN090=

USA.gov is the U.S. government's official web portal to all federal, state and local government web resources and services.